Time;durP1;ratioP1;P1;durP2;ratioP2;P2;SDS_P1;SDS_P2;PMS_P1;PMS_P2;Temp;Humidity;BMP_temperature;BMP_pressure;BME280_temperature;BME280_humidity;BME280_pressure;Samples;Min_cycle;Max_cycle;Signal;HPM_P1;HPM_P2
2023/07/20 00:00:09;;;;;;;;;;;18.90;99.90;;;;;;7334912;19;109435;-62
2023/07/20 00:02:36;;;;;;;;;;;18.90;99.90;;;;;;7337191;19;109192;-61
2023/07/20 00:05:03;;;;;;;;;;;18.90;99.90;;;;;;7332479;19;111730;-61
2023/07/20 00:07:31;;;;;;;;;;;18.90;99.90;;;;;;7337542;19;108895;-61
2023/07/20 00:09:58;;;;;;;;;;;18.90;99.90;;;;;;7329709;19;110240;-61
2023/07/20 00:12:25;;;;;;;;;;;18.90;99.90;;;;;;7335713;19;108928;-61
2023/07/20 00:14:53;;;;;;;;;;;18.90;99.90;;;;;;7339735;19;109988;-60
2023/07/20 00:17:20;;;;;;;;;;;18.90;99.90;;;;;;7327939;19;111131;-61
2023/07/20 00:19:48;;;;;;;;;;;18.90;99.90;;;;;;7336430;19;109018;-61
2023/07/20 00:22:18;;;;;;;;;;;18.90;99.90;;;;;;7327867;19;110506;-62
2023/07/20 00:24:45;;;;;;;;;;;18.90;99.90;;;;;;7335645;19;109633;-62
2023/07/20 00:27:12;;;;;;;;;;;19.00;99.90;;;;;;7335532;19;111035;-62
2023/07/20 00:29:39;;;;;;;;;;;19.00;99.90;;;;;;7333189;19;108899;-60
2023/07/20 00:32:10;;;;;;;;;;;19.00;99.90;;;;;;7338619;19;108384;-61
2023/07/20 00:34:39;;;;;;;;;;;19.00;99.90;;;;;;7332382;19;110846;-60
2023/07/20 00:37:06;;;;;;;;;;;19.00;99.90;;;;;;7338496;19;108889;-64
2023/07/20 00:39:33;;;;;;;;;;;19.00;99.90;;;;;;7331883;19;110457;-61
2023/07/20 00:42:00;;;;;;;;;;;19.00;99.90;;;;;;7335262;19;109022;-61
2023/07/20 00:44:27;;;;;;;;;;;19.10;99.90;;;;;;7333158;19;108812;-61
2023/07/20 00:46:55;;;;;;;;;;;19.00;99.90;;;;;;7333125;19;109452;-61
2023/07/20 00:49:23;;;;;;;;;;;19.10;99.90;;;;;;7332072;19;109659;-61
2023/07/20 00:51:51;;;;;;;;;;;19.10;99.90;;;;;;7333853;19;108639;-61
2023/07/20 00:54:18;;;;;;;;;;;19.00;99.90;;;;;;7329001;19;109453;-62
2023/07/20 00:56:45;;;;;;;;;;;19.00;99.90;;;;;;7334920;19;108853;-62
2023/07/20 00:59:13;;;;;;;;;;;19.00;99.90;;;;;;7343340;19;108914;-62
2023/07/20 01:01:40;;;;;;;;;;;19.10;99.90;;;;;;7330984;19;109983;-62
2023/07/20 01:04:07;;;;;;;;;;;19.10;99.90;;;;;;7335022;19;108649;-65
2023/07/20 01:06:48;;;;;;;;;;;19.00;99.90;;;;;;7333420;19;112846;-62
2023/07/20 01:09:19;;;;;;;;;;;19.10;99.90;;;;;;7331738;19;108951;-62
2023/07/20 01:12:13;;;;;;;;;;;19.10;99.90;;;;;;7331252;19;110331;-61
2023/07/20 01:14:40;;;;;;;;;;;19.10;99.90;;;;;;7325830;19;111489;-61
2023/07/20 01:17:07;;;;;;;;;;;19.10;99.90;;;;;;7334791;19;108929;-62
2023/07/20 01:19:34;;;;;;;;;;;19.10;99.90;;;;;;7337984;19;109290;-61
2023/07/20 01:22:01;;;;;;;;;;;19.10;99.90;;;;;;7333200;19;108979;-61
2023/07/20 01:24:45;;;;;;;;;;;19.10;99.90;;;;;;7332037;19;110594;-61
2023/07/20 01:27:28;;;;;;;;;;;19.10;99.90;;;;;;7329829;19;110061;-61
2023/07/20 01:30:14;;;;;;;;;;;19.10;99.90;;;;;;7332441;19;109612;-61
2023/07/20 01:32:42;;;;;;;;;;;19.10;99.90;;;;;;7335884;19;109421;-61
2023/07/20 01:35:11;;;;;;;;;;;19.10;99.90;;;;;;7332269;19;109053;-65
2023/07/20 01:37:38;;;;;;;;;;;19.00;99.90;;;;;;7330673;19;108679;-61
2023/07/20 01:40:05;;;;;;;;;;;19.00;99.90;;;;;;7333110;19;109326;-61
2023/07/20 01:42:33;;;;;;;;;;;19.00;99.90;;;;;;7332313;19;109142;-61
2023/07/20 01:45:00;;;;;;;;;;;19.00;99.90;;;;;;7331009;19;108930;-61
2023/07/20 01:47:27;;;;;;;;;;;18.90;99.90;;;;;;7330357;19;110791;-62
2023/07/20 01:49:54;;;;;;;;;;;18.90;99.90;;;;;;7331326;19;111342;-62
2023/07/20 01:52:21;;;;;;;;;;;18.90;99.90;;;;;;7333095;19;109168;-62
2023/07/20 01:54:48;;;;;;;;;;;18.90;99.90;;;;;;7328998;19;110654;-61
2023/07/20 01:57:26;;;;;;;;;;;18.80;99.90;;;;;;7331429;19;110282;-62
2023/07/20 01:59:53;;;;;;;;;;;18.70;99.90;;;;;;7335023;19;109166;-62
2023/07/20 02:02:22;;;;;;;;;;;18.70;99.90;;;;;;7328592;19;110286;-62
2023/07/20 02:04:49;;;;;;;;;;;18.70;99.90;;;;;;7334578;19;110932;-62
2023/07/20 02:07:17;;;;;;;;;;;18.60;99.90;;;;;;7330698;19;111488;-62
2023/07/20 02:09:44;;;;;;;;;;;18.60;99.90;;;;;;7335335;19;110208;-60
2023/07/20 02:12:11;;;;;;;;;;;18.60;99.90;;;;;;7339800;19;109913;-60
2023/07/20 02:14:38;;;;;;;;;;;18.60;99.90;;;;;;7339815;19;110385;-60
2023/07/20 02:17:06;;;;;;;;;;;18.50;99.90;;;;;;7334057;19;108747;-61
2023/07/20 02:19:33;;;;;;;;;;;18.50;99.90;;;;;;7342098;19;108384;-60
2023/07/20 02:22:00;;;;;;;;;;;18.40;99.90;;;;;;7338107;19;109358;-61
2023/07/20 02:24:27;;;;;;;;;;;18.40;99.90;;;;;;7341144;19;109779;-60
2023/07/20 02:26:54;;;;;;;;;;;18.40;99.90;;;;;;7344659;19;109158;-61
2023/07/20 02:29:21;;;;;;;;;;;18.30;99.90;;;;;;7332688;19;109814;-62
2023/07/20 02:31:48;;;;;;;;;;;18.30;99.90;;;;;;7339259;19;109247;-62
2023/07/20 02:34:15;;;;;;;;;;;18.20;99.90;;;;;;7334483;19;109108;-61
2023/07/20 02:36:42;;;;;;;;;;;18.20;99.90;;;;;;7338936;19;109854;-61
2023/07/20 02:39:10;;;;;;;;;;;18.20;99.90;;;;;;7334567;19;111709;-61
2023/07/20 02:41:37;;;;;;;;;;;18.10;99.90;;;;;;7339592;19;109166;-61
2023/07/20 02:44:04;;;;;;;;;;;18.10;99.90;;;;;;7336049;19;110889;-61
2023/07/20 02:46:31;;;;;;;;;;;18.10;99.90;;;;;;7333543;19;109687;-61
2023/07/20 02:48:58;;;;;;;;;;;18.00;99.90;;;;;;7342788;19;109416;-61
2023/07/20 02:51:25;;;;;;;;;;;18.00;99.90;;;;;;7333471;19;109936;-61
2023/07/20 02:53:52;;;;;;;;;;;18.00;99.90;;;;;;7337546;19;110453;-61
2023/07/20 02:56:19;;;;;;;;;;;18.00;99.90;;;;;;7334743;19;108507;-61
2023/07/20 02:58:47;;;;;;;;;;;17.90;99.90;;;;;;7337344;19;110419;-61
2023/07/20 03:01:15;;;;;;;;;;;17.90;99.90;;;;;;7336088;19;110689;-61
2023/07/20 03:03:46;;;;;;;;;;;17.80;99.90;;;;;;7337573;19;109083;-61
2023/07/20 03:06:14;;;;;;;;;;;17.80;99.90;;;;;;7334577;19;108819;-65
2023/07/20 03:08:47;;;;;;;;;;;17.80;99.90;;;;;;7336544;19;109182;-61
2023/07/20 03:11:15;;;;;;;;;;;17.70;99.90;;;;;;7340099;19;110527;-61
2023/07/20 03:13:42;;;;;;;;;;;17.70;99.90;;;;;;7335502;19;109207;-61
2023/07/20 03:16:11;;;;;;;;;;;17.60;99.90;;;;;;7332305;19;113590;-61
2023/07/20 03:18:38;;;;;;;;;;;17.60;99.90;;;;;;7335727;19;108483;-61
2023/07/20 03:21:11;;;;;;;;;;;17.50;99.90;;;;;;7331239;19;109369;-61
2023/07/20 03:23:38;;;;;;;;;;;17.50;99.90;;;;;;7334920;19;108664;-61
2023/07/20 03:26:08;;;;;;;;;;;17.50;99.90;;;;;;7338494;19;108865;-61
2023/07/20 03:28:35;;;;;;;;;;;17.50;99.90;;;;;;7332205;19;110160;-61
2023/07/20 03:31:02;;;;;;;;;;;17.50;99.90;;;;;;7343636;19;109053;-61
2023/07/20 03:33:30;;;;;;;;;;;17.30;99.90;;;;;;7329183;19;109033;-61
2023/07/20 03:35:58;;;;;;;;;;;17.40;99.90;;;;;;7332468;19;110427;-61
2023/07/20 03:38:26;;;;;;;;;;;17.20;99.90;;;;;;7331765;19;111621;-61
2023/07/20 03:40:54;;;;;;;;;;;17.20;99.90;;;;;;7334663;19;109143;-61
2023/07/20 03:43:21;;;;;;;;;;;17.10;99.90;;;;;;7337582;19;108951;-61
2023/07/20 03:45:49;;;;;;;;;;;17.10;99.90;;;;;;7333370;19;110161;-61
2023/07/20 03:48:17;;;;;;;;;;;17.10;99.90;;;;;;7334684;19;110347;-61
2023/07/20 03:50:45;;;;;;;;;;;17.10;99.90;;;;;;7333557;19;108850;-61
2023/07/20 03:53:12;;;;;;;;;;;17.10;99.90;;;;;;7341338;19;109081;-61
2023/07/20 03:55:40;;;;;;;;;;;17.20;99.90;;;;;;7336006;19;112470;-61
2023/07/20 03:58:08;;;;;;;;;;;17.10;99.90;;;;;;7333698;19;108604;-62
2023/07/20 04:00:35;;;;;;;;;;;17.10;99.90;;;;;;7333129;19;109932;-61
2023/07/20 04:03:02;;;;;;;;;;;17.00;99.90;;;;;;7331380;19;108911;-62
2023/07/20 04:05:29;;;;;;;;;;;16.90;99.90;;;;;;7333034;19;109082;-62
2023/07/20 04:07:56;;;;;;;;;;;17.00;99.90;;;;;;7331543;19;110300;-61
2023/07/20 04:10:23;;;;;;;;;;;17.00;99.90;;;;;;7335404;19;109919;-61
2023/07/20 04:12:50;;;;;;;;;;;17.00;99.90;;;;;;7329791;19;108576;-61
2023/07/20 04:15:18;;;;;;;;;;;17.00;99.90;;;;;;7341697;19;109639;-61
2023/07/20 04:17:45;;;;;;;;;;;17.00;99.90;;;;;;7331430;19;110578;-62
2023/07/20 04:20:12;;;;;;;;;;;17.10;99.90;;;;;;7333582;19;109337;-62
2023/07/20 04:22:40;;;;;;;;;;;17.00;99.90;;;;;;7333619;19;110583;-62
2023/07/20 04:25:07;;;;;;;;;;;17.00;99.90;;;;;;7329447;19;110646;-62
2023/07/20 04:27:35;;;;;;;;;;;17.00;99.90;;;;;;7333407;19;109528;-61
2023/07/20 04:30:03;;;;;;;;;;;17.10;99.90;;;;;;7329934;19;108991;-61
2023/07/20 04:32:33;;;;;;;;;;;17.10;99.90;;;;;;7330022;19;108656;-68
2023/07/20 04:35:05;;;;;;;;;;;17.20;99.90;;;;;;7333314;19;109603;-61
2023/07/20 04:37:33;;;;;;;;;;;17.10;99.90;;;;;;7339615;19;108558;-61
2023/07/20 04:40:00;;;;;;;;;;;17.00;99.90;;;;;;7331107;19;109897;-61
2023/07/20 04:42:27;;;;;;;;;;;16.90;99.90;;;;;;7332582;19;109570;-61
2023/07/20 04:44:54;;;;;;;;;;;16.80;99.90;;;;;;7331266;19;109433;-62
2023/07/20 04:47:21;;;;;;;;;;;16.80;99.90;;;;;;7329066;19;109775;-61
2023/07/20 04:49:48;;;;;;;;;;;16.90;99.90;;;;;;7332570;19;111110;-62
2023/07/20 04:52:16;;;;;;;;;;;16.90;99.90;;;;;;7335037;19;108788;-62
2023/07/20 04:54:43;;;;;;;;;;;16.80;99.90;;;;;;7331490;19;110255;-62
2023/07/20 04:57:11;;;;;;;;;;;16.80;99.90;;;;;;7332800;19;111963;-62
2023/07/20 04:59:39;;;;;;;;;;;16.80;99.90;;;;;;7339700;19;110213;-62
2023/07/20 05:02:06;;;;;;;;;;;16.80;99.90;;;;;;7330850;19;109969;-62
2023/07/20 05:04:34;;;;;;;;;;;16.80;99.90;;;;;;7331982;19;109165;-62
2023/07/20 05:07:05;;;;;;;;;;;16.90;99.90;;;;;;7332409;19;109988;-62
2023/07/20 05:09:32;;;;;;;;;;;17.10;99.90;;;;;;7330519;19;109922;-62
2023/07/20 05:12:00;;;;;;;;;;;17.10;99.90;;;;;;7331759;19;109029;-62
2023/07/20 05:14:27;;;;;;;;;;;17.20;99.90;;;;;;7331651;19;109158;-62
2023/07/20 05:16:54;;;;;;;;;;;17.30;99.90;;;;;;7327240;19;111469;-62
2023/07/20 05:19:21;;;;;;;;;;;17.40;99.90;;;;;;7337863;19;108873;-62
2023/07/20 05:21:48;;;;;;;;;;;17.40;99.90;;;;;;7331853;19;108881;-62
2023/07/20 05:24:15;;;;;;;;;;;17.50;99.90;;;;;;7333052;19;108480;-61
2023/07/20 05:26:43;;;;;;;;;;;17.50;99.90;;;;;;7332788;19;109250;-62
2023/07/20 05:29:10;;;;;;;;;;;17.60;99.90;;;;;;7332447;19;110820;-62
2023/07/20 05:31:37;;;;;;;;;;;17.70;99.90;;;;;;7333700;19;108841;-62
2023/07/20 05:34:04;;;;;;;;;;;17.70;99.90;;;;;;7333834;19;109532;-62
2023/07/20 05:36:31;;;;;;;;;;;17.80;99.90;;;;;;7333194;19;108763;-62
2023/07/20 05:38:58;;;;;;;;;;;17.80;99.90;;;;;;7333075;19;108334;-62
2023/07/20 05:41:25;;;;;;;;;;;17.80;99.90;;;;;;7338157;19;110247;-62
2023/07/20 05:43:52;;;;;;;;;;;17.90;99.90;;;;;;7332356;19;109132;-62
2023/07/20 05:46:20;;;;;;;;;;;17.90;99.90;;;;;;7331902;19;110388;-62
2023/07/20 05:48:47;;;;;;;;;;;18.00;99.90;;;;;;7331568;19;111115;-62
2023/07/20 05:51:15;;;;;;;;;;;18.00;99.90;;;;;;7330144;19;110308;-63
2023/07/20 05:53:42;;;;;;;;;;;18.10;99.90;;;;;;7330528;19;109427;-62
2023/07/20 05:56:10;;;;;;;;;;;18.00;99.90;;;;;;7334106;19;108530;-62
2023/07/20 05:58:37;;;;;;;;;;;18.00;99.90;;;;;;7329764;19;109510;-63
2023/07/20 06:01:06;;;;;;;;;;;18.00;99.90;;;;;;7330911;19;109555;-62
2023/07/20 06:03:37;;;;;;;;;;;18.00;99.90;;;;;;7336701;19;110089;-62
2023/07/20 06:06:05;;;;;;;;;;;18.10;99.90;;;;;;7332680;19;109549;-63
2023/07/20 06:08:32;;;;;;;;;;;18.10;99.90;;;;;;7331046;19;109172;-62
2023/07/20 06:10:59;;;;;;;;;;;18.20;99.90;;;;;;7335674;19;108932;-59
2023/07/20 06:13:26;;;;;;;;;;;18.20;99.90;;;;;;7342423;19;110002;-61
2023/07/20 06:15:53;;;;;;;;;;;18.30;99.90;;;;;;7348277;19;109064;-64
2023/07/20 06:18:22;;;;;;;;;;;18.30;99.90;;;;;;7343766;19;109454;-61
2023/07/20 06:20:52;;;;;;;;;;;18.40;99.90;;;;;;7340144;19;110162;-65
2023/07/20 06:23:19;;;;;;;;;;;18.50;99.90;;;;;;7344562;19;109734;-63
2023/07/20 06:25:46;;;;;;;;;;;18.50;99.90;;;;;;7348731;19;109745;-61
2023/07/20 06:28:13;;;;;;;;;;;18.50;99.90;;;;;;7341012;19;108845;-63
2023/07/20 06:30:40;;;;;;;;;;;18.50;99.90;;;;;;7345752;19;108772;-61
2023/07/20 06:33:07;;;;;;;;;;;18.60;99.90;;;;;;7339180;19;111198;-63
2023/07/20 06:35:37;;;;;;;;;;;18.60;99.90;;;;;;7332260;19;109052;-64
2023/07/20 06:38:04;;;;;;;;;;;18.60;99.90;;;;;;7330393;19;108344;-63
2023/07/20 06:40:35;;;;;;;;;;;18.70;99.90;;;;;;7331411;19;109896;-64
2023/07/20 06:43:03;;;;;;;;;;;18.90;99.90;;;;;;7335394;19;109029;-65
2023/07/20 06:45:33;;;;;;;;;;;19.00;99.90;;;;;;7329351;19;108568;-70
2023/07/20 06:48:00;;;;;;;;;;;19.00;99.90;;;;;;7337928;19;109969;-63
2023/07/20 06:50:27;;;;;;;;;;;19.10;99.90;;;;;;7329703;19;109300;-67
2023/07/20 06:52:54;;;;;;;;;;;19.20;99.90;;;;;;7330197;19;109452;-69
2023/07/20 06:55:24;;;;;;;;;;;19.30;99.90;;;;;;7337018;19;108701;-63
2023/07/20 06:57:52;;;;;;;;;;;19.20;99.90;;;;;;7336709;19;109082;-63
2023/07/20 07:00:24;;;;;;;;;;;19.30;99.90;;;;;;7333547;19;109659;-65
2023/07/20 07:02:51;;;;;;;;;;;19.40;99.90;;;;;;7334990;19;109110;-64
2023/07/20 07:05:18;;;;;;;;;;;19.40;99.90;;;;;;7331390;19;109043;-63
2023/07/20 07:07:47;;;;;;;;;;;19.40;99.90;;;;;;7331981;19;109615;-64
2023/07/20 07:10:14;;;;;;;;;;;19.40;99.90;;;;;;7337602;19;108881;-63
2023/07/20 07:12:41;;;;;;;;;;;19.40;99.90;;;;;;7332478;19;110257;-63
2023/07/20 07:15:10;;;;;;;;;;;19.40;99.90;;;;;;7335451;19;109042;-63
2023/07/20 07:17:38;;;;;;;;;;;19.40;99.90;;;;;;7336796;19;109325;-63
2023/07/20 07:20:07;;;;;;;;;;;19.50;99.90;;;;;;7338205;19;109078;-63
2023/07/20 07:22:37;;;;;;;;;;;19.60;99.90;;;;;;7336141;19;110201;-63
2023/07/20 07:25:04;;;;;;;;;;;19.60;99.90;;;;;;7336409;19;108538;-65
2023/07/20 07:27:31;;;;;;;;;;;19.70;99.90;;;;;;7334876;19;110500;-63
2023/07/20 07:29:58;;;;;;;;;;;19.70;99.90;;;;;;7342291;19;109033;-63
2023/07/20 07:32:26;;;;;;;;;;;19.70;99.90;;;;;;7334001;19;110211;-64
2023/07/20 07:34:53;;;;;;;;;;;19.90;99.90;;;;;;7334860;19;109187;-63
2023/07/20 07:37:20;;;;;;;;;;;20.10;99.90;;;;;;7337468;19;111377;-63
2023/07/20 07:39:47;;;;;;;;;;;20.30;99.90;;;;;;7336023;19;109193;-63
2023/07/20 07:42:15;;;;;;;;;;;20.40;99.90;;;;;;7333858;19;110878;-64
2023/07/20 07:44:42;;;;;;;;;;;20.50;99.90;;;;;;7337606;19;109103;-63
2023/07/20 07:47:09;;;;;;;;;;;20.60;99.90;;;;;;7336636;19;108906;-63
2023/07/20 07:49:37;;;;;;;;;;;20.60;99.90;;;;;;7338984;19;108420;-64
2023/07/20 07:52:06;;;;;;;;;;;20.60;99.90;;;;;;7344271;19;108285;-63
2023/07/20 07:54:34;;;;;;;;;;;20.60;99.90;;;;;;7331565;19;108792;-68
2023/07/20 07:57:01;;;;;;;;;;;20.60;99.90;;;;;;7335392;19;108552;-67
2023/07/20 07:59:29;;;;;;;;;;;20.70;99.90;;;;;;7334956;19;109837;-66
2023/07/20 08:01:58;;;;;;;;;;;20.80;99.90;;;;;;7332791;19;108906;-72
2023/07/20 08:04:25;;;;;;;;;;;20.90;99.90;;;;;;7336811;19;110685;-71
2023/07/20 08:06:52;;;;;;;;;;;21.00;99.90;;;;;;7330966;19;109212;-66
2023/07/20 08:09:19;;;;;;;;;;;21.10;99.90;;;;;;7335850;19;109051;-65
2023/07/20 08:11:48;;;;;;;;;;;21.20;99.90;;;;;;7334776;19;110500;-67
2023/07/20 08:14:15;;;;;;;;;;;21.30;99.90;;;;;;7339706;19;109119;-65
2023/07/20 08:16:43;;;;;;;;;;;21.40;99.90;;;;;;7338185;19;108731;-66
2023/07/20 08:19:10;;;;;;;;;;;21.40;99.90;;;;;;7333557;19;109140;-67
2023/07/20 08:21:37;;;;;;;;;;;21.50;99.90;;;;;;7336892;19;108774;-68
2023/07/20 08:24:05;;;;;;;;;;;21.60;99.90;;;;;;7336457;19;109454;-65
2023/07/20 08:26:32;;;;;;;;;;;21.70;99.90;;;;;;7331301;19;109385;-67
2023/07/20 08:28:59;;;;;;;;;;;21.80;99.90;;;;;;7337332;19;108638;-86
2023/07/20 08:31:28;;;;;;;;;;;21.90;99.90;;;;;;7337234;19;110128;-85
2023/07/20 08:33:56;;;;;;;;;;;22.10;99.90;;;;;;7341414;19;111555;-85
2023/07/20 08:36:24;;;;;;;;;;;22.10;99.90;;;;;;7340550;19;108867;-85
2023/07/20 08:38:51;;;;;;;;;;;22.20;99.90;;;;;;7339473;19;110298;-86
2023/07/20 08:41:19;;;;;;;;;;;22.10;99.90;;;;;;7336215;19;109668;-86
2023/07/20 08:43:46;;;;;;;;;;;22.00;99.90;;;;;;7335472;19;108788;-86
2023/07/20 08:46:14;;;;;;;;;;;22.10;99.90;;;;;;7339079;19;109747;-87
2023/07/20 08:48:43;;;;;;;;;;;22.10;99.90;;;;;;7336139;19;109855;-86
2023/07/20 08:51:10;;;;;;;;;;;22.10;99.90;;;;;;7338481;19;112228;-86
2023/07/20 08:53:38;;;;;;;;;;;22.10;99.90;;;;;;7339532;19;112627;-85
2023/07/20 08:56:06;;;;;;;;;;;22.20;99.90;;;;;;7365582;19;109804;-86
2023/07/20 08:58:34;;;;;;;;;;;22.40;99.90;;;;;;7357631;19;110920;-86
2023/07/20 09:01:02;;;;;;;;;;;22.40;99.90;;;;;;7333007;19;113293;-86
2023/07/20 09:03:29;;;;;;;;;;;22.50;99.90;;;;;;7337153;19;109104;-83
2023/07/20 09:05:57;;;;;;;;;;;22.40;99.90;;;;;;7335156;19;113921;-84
2023/07/20 09:08:24;;;;;;;;;;;22.40;99.90;;;;;;7333113;19;109019;-83
2023/07/20 09:10:52;;;;;;;;;;;22.40;99.90;;;;;;7337635;19;111708;-83
2023/07/20 09:13:19;;;;;;;;;;;22.50;99.90;;;;;;7333761;19;110216;-84
2023/07/20 09:15:48;;;;;;;;;;;22.50;99.90;;;;;;7338346;19;108700;-83
2023/07/20 09:18:29;;;;;;;;;;;22.60;99.90;;;;;;7334347;19;108668;-84
2023/07/20 09:21:03;;;;;;;;;;;22.60;99.90;;;;;;7338566;19;110949;-84
2023/07/20 09:23:35;;;;;;;;;;;22.50;99.90;;;;;;7334133;19;109722;-83
2023/07/20 09:26:09;;;;;;;;;;;22.40;99.90;;;;;;7334455;19;113029;-83
2023/07/20 09:28:44;;;;;;;;;;;22.50;99.90;;;;;;7333445;19;108882;-83
2023/07/20 09:31:17;;;;;;;;;;;22.60;99.90;;;;;;7355255;19;110500;-84
2023/07/20 09:33:45;;;;;;;;;;;22.60;99.90;;;;;;7351996;19;109058;-71
2023/07/20 09:36:15;;;;;;;;;;;22.70;99.90;;;;;;7319294;19;111822;-71
2023/07/20 09:39:05;;;;;;;;;;;22.90;99.90;;;;;;7321133;19;113350;-71
2023/07/20 09:41:42;;;;;;;;;;;23.10;99.90;;;;;;7329506;19;109381;-75
2023/07/20 09:44:13;;;;;;;;;;;23.30;99.90;;;;;;7329234;19;109243;-72
2023/07/20 09:46:50;;;;;;;;;;;23.40;99.90;;;;;;7327342;19;110597;-71
2023/07/20 09:49:20;;;;;;;;;;;23.60;99.90;;;;;;7327152;19;108975;-71
2023/07/20 09:51:52;;;;;;;;;;;23.70;99.90;;;;;;7325178;19;113107;-72
2023/07/20 09:54:21;;;;;;;;;;;23.80;99.90;;;;;;7326753;19;115422;-72
2023/07/20 09:56:50;;;;;;;;;;;23.80;99.90;;;;;;7327391;19;109405;-70
2023/07/20 09:59:17;;;;;;;;;;;23.80;99.90;;;;;;7327888;19;109897;-72
2023/07/20 10:01:46;;;;;;;;;;;23.50;99.90;;;;;;7326551;19;113940;-71
2023/07/20 10:04:14;;;;;;;;;;;23.40;99.90;;;;;;7330761;19;109595;-72
2023/07/20 10:06:42;;;;;;;;;;;23.40;99.90;;;;;;7324505;19;109899;-72
2023/07/20 10:09:10;;;;;;;;;;;23.50;99.90;;;;;;7327839;19;109022;-71
2023/07/20 10:11:40;;;;;;;;;;;23.60;99.90;;;;;;7324260;19;109984;-72
2023/07/20 10:14:12;;;;;;;;;;;23.60;99.90;;;;;;7323899;19;110255;-70
2023/07/20 10:16:47;;;;;;;;;;;23.60;99.90;;;;;;7325529;19;109970;-73
2023/07/20 10:19:15;;;;;;;;;;;23.60;99.90;;;;;;7325579;19;111082;-72
2023/07/20 10:21:47;;;;;;;;;;;23.60;99.90;;;;;;7320432;19;109427;-72
2023/07/20 10:24:21;;;;;;;;;;;23.60;99.90;;;;;;7320188;19;110369;-72
2023/07/20 10:26:49;;;;;;;;;;;23.60;99.90;;;;;;7330568;19;109836;-71
2023/07/20 10:29:16;;;;;;;;;;;23.50;99.90;;;;;;7335117;19;109829;-74
2023/07/20 10:31:44;;;;;;;;;;;23.40;99.90;;;;;;7339389;19;108806;-72
2023/07/20 10:34:12;;;;;;;;;;;23.40;99.90;;;;;;7336256;19;113522;-73
2023/07/20 10:36:51;;;;;;;;;;;23.40;99.90;;;;;;7340881;19;108806;-73
2023/07/20 10:39:27;;;;;;;;;;;23.50;99.90;;;;;;7339835;19;109981;-75
2023/07/20 10:42:07;;;;;;;;;;;23.60;99.90;;;;;;7339688;19;109235;-74
2023/07/20 10:44:37;;;;;;;;;;;23.70;99.90;;;;;;7338980;19;108781;-73
2023/07/20 10:47:13;;;;;;;;;;;23.80;99.90;;;;;;7340293;19;109165;-73
2023/07/20 10:50:00;;;;;;;;;;;23.90;99.90;;;;;;7346403;19;110568;-73
2023/07/20 10:52:36;;;;;;;;;;;24.00;99.90;;;;;;7338695;19;109130;-69
2023/07/20 10:55:16;;;;;;;;;;;24.00;99.90;;;;;;7335731;19;109751;-68
2023/07/20 10:58:03;;;;;;;;;;;24.10;99.90;;;;;;7338054;19;111318;-68
2023/07/20 11:00:30;;;;;;;;;;;24.10;99.90;;;;;;7340141;19;108720;-69
2023/07/20 11:02:59;;;;;;;;;;;24.10;99.90;;;;;;7338129;19;109202;-69
2023/07/20 11:05:34;;;;;;;;;;;24.10;99.90;;;;;;7340377;19;108497;-69
2023/07/20 11:08:06;;;;;;;;;;;24.10;99.90;;;;;;7335785;19;108691;-69
2023/07/20 11:10:33;;;;;;;;;;;24.10;99.90;;;;;;7338117;19;109097;-68
2023/07/20 11:13:19;;;;;;;;;;;24.20;99.90;;;;;;7345416;19;108991;-68
2023/07/20 11:15:47;;;;;;;;;;;24.20;99.90;;;;;;7335872;19;109325;-68
2023/07/20 11:18:14;;;;;;;;;;;24.30;99.90;;;;;;7340714;19;109794;-68
2023/07/20 11:20:41;;;;;;;;;;;24.30;99.90;;;;;;7337480;19;110534;-68
2023/07/20 11:23:09;;;;;;;;;;;24.30;99.90;;;;;;7339469;19;109954;-68
2023/07/20 11:25:40;;;;;;;;;;;24.30;99.90;;;;;;7336870;19;108699;-68
2023/07/20 11:28:08;;;;;;;;;;;24.40;99.90;;;;;;7337329;19;110045;-69
2023/07/20 11:30:37;;;;;;;;;;;24.50;99.90;;;;;;7341039;19;110093;-68
2023/07/20 11:33:05;;;;;;;;;;;24.50;99.90;;;;;;7336130;19;108457;-67
2023/07/20 11:35:48;;;;;;;;;;;24.70;99.90;;;;;;7343616;19;109229;-68
2023/07/20 11:38:15;;;;;;;;;;;24.80;99.90;;;;;;7338894;19;113497;-68
2023/07/20 11:40:45;;;;;;;;;;;24.90;99.90;;;;;;7336888;19;109631;-68
2023/07/20 11:43:13;;;;;;;;;;;25.00;99.90;;;;;;7337803;19;109444;-70
2023/07/20 11:45:43;;;;;;;;;;;25.10;99.90;;;;;;7337524;19;109549;-68
2023/07/20 11:48:17;;;;;;;;;;;25.00;99.90;;;;;;7335450;19;109103;-70
2023/07/20 11:50:44;;;;;;;;;;;25.00;99.90;;;;;;7337079;19;110106;-68
2023/07/20 11:53:11;;;;;;;;;;;25.10;99.90;;;;;;7336185;19;109429;-68
2023/07/20 11:55:40;;;;;;;;;;;25.30;99.90;;;;;;7339158;19;111604;-68
2023/07/20 11:58:08;;;;;;;;;;;25.40;99.90;;;;;;7335047;19;108660;-68
2023/07/20 12:00:38;;;;;;;;;;;25.50;99.90;;;;;;7334616;19;110366;-68
2023/07/20 12:03:09;;;;;;;;;;;25.60;99.90;;;;;;7336210;19;110071;-67
2023/07/20 12:05:40;;;;;;;;;;;25.60;99.90;;;;;;7335846;19;108930;-67
2023/07/20 12:08:10;;;;;;;;;;;25.60;98.90;;;;;;7336593;19;113304;-68
2023/07/20 12:10:43;;;;;;;;;;;25.50;98.60;;;;;;7336291;19;109008;-68
2023/07/20 12:13:11;;;;;;;;;;;25.50;98.90;;;;;;7336809;19;108878;-67
2023/07/20 12:15:38;;;;;;;;;;;25.70;99.70;;;;;;7337012;19;108769;-67
2023/07/20 12:18:05;;;;;;;;;;;25.80;99.80;;;;;;7342137;19;109525;-67
2023/07/20 12:20:34;;;;;;;;;;;26.00;99.90;;;;;;7337141;19;109330;-67
2023/07/20 12:23:05;;;;;;;;;;;26.30;99.60;;;;;;7336059;19;109417;-68
2023/07/20 12:25:42;;;;;;;;;;;26.40;98.20;;;;;;7335186;19;108821;-68
2023/07/20 12:28:10;;;;;;;;;;;26.40;97.80;;;;;;7336685;19;109112;-67
2023/07/20 12:30:38;;;;;;;;;;;26.40;97.50;;;;;;7335204;19;109713;-68
2023/07/20 12:33:05;;;;;;;;;;;26.40;97.80;;;;;;7337376;19;108674;-66
2023/07/20 12:35:33;;;;;;;;;;;26.50;97.00;;;;;;7335110;19;108474;-68
2023/07/20 12:38:01;;;;;;;;;;;26.50;97.90;;;;;;7332814;19;111145;-68
2023/07/20 12:40:28;;;;;;;;;;;26.60;98.10;;;;;;7338334;19;108920;-68
2023/07/20 12:42:55;;;;;;;;;;;26.60;96.30;;;;;;7332842;19;111389;-68
2023/07/20 12:45:22;;;;;;;;;;;26.50;96.90;;;;;;7333070;19;108676;-68
2023/07/20 12:47:49;;;;;;;;;;;26.50;95.90;;;;;;7336291;19;109576;-67
2023/07/20 12:50:17;;;;;;;;;;;26.40;95.80;;;;;;7331183;19;110733;-67
2023/07/20 12:52:44;;;;;;;;;;;26.40;97.20;;;;;;7332188;19;108522;-68
2023/07/20 12:55:11;;;;;;;;;;;26.30;96.20;;;;;;7337157;19;109100;-68
2023/07/20 12:57:40;;;;;;;;;;;26.30;96.50;;;;;;7332453;19;109071;-68
2023/07/20 13:00:09;;;;;;;;;;;26.20;94.50;;;;;;7335955;19;108450;-68
2023/07/20 13:02:36;;;;;;;;;;;26.10;96.30;;;;;;7341089;19;108838;-68
2023/07/20 13:05:03;;;;;;;;;;;26.00;95.10;;;;;;7334635;19;109103;-68
2023/07/20 13:07:31;;;;;;;;;;;25.80;95.20;;;;;;7335849;19;109990;-69
2023/07/20 13:10:02;;;;;;;;;;;25.60;95.70;;;;;;7334979;19;109381;-70
2023/07/20 13:12:31;;;;;;;;;;;25.70;95.30;;;;;;7335736;19;109324;-70
2023/07/20 13:15:05;;;;;;;;;;;25.50;95.10;;;;;;7338367;19;108618;-69
2023/07/20 13:17:36;;;;;;;;;;;25.30;95.40;;;;;;7336299;19;109571;-70
2023/07/20 13:20:04;;;;;;;;;;;25.30;96.30;;;;;;7335033;19;108668;-71
2023/07/20 13:22:31;;;;;;;;;;;25.30;96.60;;;;;;7336599;19;109094;-70
2023/07/20 13:24:58;;;;;;;;;;;25.20;96.20;;;;;;7338240;19;110293;-71
2023/07/20 13:27:26;;;;;;;;;;;25.20;95.70;;;;;;7335455;19;108419;-70
2023/07/20 13:29:53;;;;;;;;;;;25.10;96.00;;;;;;7333657;19;109147;-70
2023/07/20 13:32:20;;;;;;;;;;;25.10;96.50;;;;;;7335090;19;108331;-71
2023/07/20 13:34:48;;;;;;;;;;;25.10;96.00;;;;;;7328972;19;109123;-70
2023/07/20 13:37:16;;;;;;;;;;;25.10;96.30;;;;;;7334001;19;109446;-71
2023/07/20 13:39:43;;;;;;;;;;;25.00;97.00;;;;;;7334106;19;108623;-69
2023/07/20 13:42:12;;;;;;;;;;;25.00;97.10;;;;;;7334400;19;109314;-70
2023/07/20 13:44:41;;;;;;;;;;;24.80;97.20;;;;;;7334447;19;110667;-69
2023/07/20 13:47:08;;;;;;;;;;;24.80;97.20;;;;;;7340244;19;109067;-70
2023/07/20 13:49:38;;;;;;;;;;;24.70;97.40;;;;;;7334072;19;108822;-70
2023/07/20 13:52:14;;;;;;;;;;;24.70;97.60;;;;;;7337404;19;108341;-69
2023/07/20 13:54:44;;;;;;;;;;;24.50;97.70;;;;;;7335399;19;108515;-69
2023/07/20 13:57:14;;;;;;;;;;;24.50;97.90;;;;;;7332490;19;108786;-72
2023/07/20 13:59:42;;;;;;;;;;;24.40;97.70;;;;;;7332560;19;108754;-70
2023/07/20 14:02:10;;;;;;;;;;;24.30;97.30;;;;;;7333496;19;109268;-70
2023/07/20 14:04:41;;;;;;;;;;;24.30;97.70;;;;;;7338307;19;109366;-69
2023/07/20 14:07:08;;;;;;;;;;;24.20;98.10;;;;;;7345404;19;108887;-72
2023/07/20 14:09:36;;;;;;;;;;;24.20;97.90;;;;;;7339453;19;110100;-70
2023/07/20 14:12:23;;;;;;;;;;;24.20;98.00;;;;;;7339874;19;108560;-70